sensor_id;sensor_type;location;lat;lon;timestamp;pressure;altitude;pressure_sealevel;temperature;humidity
41596;BME280;27283;52.504;13.358;2023-09-08T00:00:18;101852.47;;;22.10;56.50
41596;BME280;27283;52.504;13.358;2023-09-08T00:03:10;101860.47;;;22.11;56.25
41596;BME280;27283;52.504;13.358;2023-09-08T00:05:42;101841.75;;;22.02;56.62
41596;BME280;27283;52.504;13.358;2023-09-08T00:08:15;101841.81;;;21.82;57.71
41596;BME280;27283;52.504;13.358;2023-09-08T00:10:50;101847.28;;;21.88;57.38
41596;BME280;27283;52.504;13.358;2023-09-08T00:13:21;101837.63;;;21.79;57.37
41596;BME280;27283;52.504;13.358;2023-09-08T00:15:54;101833.00;;;21.66;58.31
41596;BME280;27283;52.504;13.358;2023-09-08T00:18:26;101840.13;;;21.74;57.85
41596;BME280;27283;52.504;13.358;2023-09-08T00:20:58;101843.31;;;21.71;58.23
41596;BME280;27283;52.504;13.358;2023-09-08T00:23:30;101839.75;;;21.57;58.39
41596;BME280;27283;52.504;13.358;2023-09-08T00:26:05;101837.22;;;21.55;58.66
41596;BME280;27283;52.504;13.358;2023-09-08T00:28:38;101828.63;;;21.52;58.76
41596;BME280;27283;52.504;13.358;2023-09-08T00:31:10;101834.50;;;21.55;58.42
41596;BME280;27283;52.504;13.358;2023-09-08T00:33:42;101835.56;;;21.54;58.48
41596;BME280;27283;52.504;13.358;2023-09-08T00:36:15;101827.34;;;21.41;59.25
41596;BME280;27283;52.504;13.358;2023-09-08T00:38:47;101833.88;;;21.33;60.04
41596;BME280;27283;52.504;13.358;2023-09-08T00:41:23;101831.97;;;21.20;60.26
41596;BME280;27283;52.504;13.358;2023-09-08T00:43:55;101828.38;;;21.13;60.41
41596;BME280;27283;52.504;13.358;2023-09-08T00:46:27;101836.81;;;21.05;60.47
41596;BME280;27283;52.504;13.358;2023-09-08T00:49:00;101841.41;;;21.04;60.27
41596;BME280;27283;52.504;13.358;2023-09-08T00:51:33;101829.66;;;21.11;60.38
41596;BME280;27283;52.504;13.358;2023-09-08T00:54:07;101839.53;;;21.12;60.61
41596;BME280;27283;52.504;13.358;2023-09-08T00:57:04;101833.88;;;21.06;60.39
41596;BME280;27283;52.504;13.358;2023-09-08T00:59:44;101825.63;;;21.00;60.39
41596;BME280;27283;52.504;13.358;2023-09-08T01:02:20;101823.34;;;21.10;60.21
41596;BME280;27283;52.504;13.358;2023-09-08T01:04:53;101831.31;;;21.12;60.89
41596;BME280;27283;52.504;13.358;2023-09-08T01:07:30;101828.38;;;21.00;60.76
41596;BME280;27283;52.504;13.358;2023-09-08T01:10:04;101833.00;;;20.93;61.16
41596;BME280;27283;52.504;13.358;2023-09-08T01:12:43;101834.06;;;21.05;60.38
41596;BME280;27283;52.504;13.358;2023-09-08T01:15:15;101825.63;;;21.00;60.79
41596;BME280;27283;52.504;13.358;2023-09-08T01:17:51;101833.84;;;21.00;60.68
41596;BME280;27283;52.504;13.358;2023-09-08T01:20:25;101827.97;;;20.89;61.07
41596;BME280;27283;52.504;13.358;2023-09-08T01:23:11;101822.69;;;20.95;61.32
41596;BME280;27283;52.504;13.358;2023-09-08T01:25:56;101815.13;;;20.70;62.08
41596;BME280;27283;52.504;13.358;2023-09-08T01:28:33;101823.31;;;20.77;62.19
41596;BME280;27283;52.504;13.358;2023-09-08T01:31:08;101818.25;;;20.74;61.83
41596;BME280;27283;52.504;13.358;2023-09-08T01:33:42;101818.66;;;20.77;61.88
41596;BME280;27283;52.504;13.358;2023-09-08T01:36:15;101811.75;;;20.75;62.20
41596;BME280;27283;52.504;13.358;2023-09-08T01:38:48;101817.63;;;20.71;62.17
41596;BME280;27283;52.504;13.358;2023-09-08T01:41:23;101811.53;;;20.76;62.13
41596;BME280;27283;52.504;13.358;2023-09-08T01:43:58;101807.06;;;20.62;62.85
41596;BME280;27283;52.504;13.358;2023-09-08T01:46:40;101807.75;;;20.70;62.43
41596;BME280;27283;52.504;13.358;2023-09-08T01:49:15;101809.19;;;20.66;62.38
41596;BME280;27283;52.504;13.358;2023-09-08T01:51:47;101808.38;;;20.66;62.37
41596;BME280;27283;52.504;13.358;2023-09-08T01:54:20;101804.09;;;20.50;63.00
41596;BME280;27283;52.504;13.358;2023-09-08T01:57:04;101804.75;;;20.59;62.91
41596;BME280;27283;52.504;13.358;2023-09-08T01:59:36;101802.63;;;20.61;62.54
41596;BME280;27283;52.504;13.358;2023-09-08T02:02:08;101798.88;;;20.55;63.05
41596;BME280;27283;52.504;13.358;2023-09-08T02:04:41;101797.78;;;20.49;63.16
41596;BME280;27283;52.504;13.358;2023-09-08T02:07:13;101799.03;;;20.47;63.33
41596;BME280;27283;52.504;13.358;2023-09-08T02:09:46;101801.09;;;20.38;63.64
41596;BME280;27283;52.504;13.358;2023-09-08T02:12:21;101790.38;;;20.36;63.80
41596;BME280;27283;52.504;13.358;2023-09-08T02:14:53;101793.53;;;20.33;63.83
41596;BME280;27283;52.504;13.358;2023-09-08T02:17:25;101788.06;;;20.20;64.27
41596;BME280;27283;52.504;13.358;2023-09-08T02:20:08;101790.16;;;20.25;64.33
41596;BME280;27283;52.504;13.358;2023-09-08T02:22:40;101793.31;;;20.22;64.32
41596;BME280;27283;52.504;13.358;2023-09-08T02:25:13;101790.34;;;20.16;64.67
41596;BME280;27283;52.504;13.358;2023-09-08T02:27:49;101792.22;;;20.16;64.47
41596;BME280;27283;52.504;13.358;2023-09-08T02:30:21;101792.16;;;20.03;65.37
41596;BME280;27283;52.504;13.358;2023-09-08T02:32:56;101796.81;;;20.02;65.37
41596;BME280;27283;52.504;13.358;2023-09-08T02:35:28;101790.47;;;20.01;65.61
41596;BME280;27283;52.504;13.358;2023-09-08T02:38:00;101792.53;;;19.93;65.71
41596;BME280;27283;52.504;13.358;2023-09-08T02:40:33;101788.97;;;19.86;66.18
41596;BME280;27283;52.504;13.358;2023-09-08T02:43:08;101791.69;;;19.92;66.08
41596;BME280;27283;52.504;13.358;2023-09-08T02:45:40;101779.34;;;19.96;66.03
41596;BME280;27283;52.504;13.358;2023-09-08T02:48:12;101786.66;;;19.89;66.45
41596;BME280;27283;52.504;13.358;2023-09-08T02:50:45;101779.50;;;19.88;65.95
41596;BME280;27283;52.504;13.358;2023-09-08T02:53:19;101779.22;;;19.76;66.77
41596;BME280;27283;52.504;13.358;2023-09-08T02:55:55;101784.31;;;19.79;66.42
41596;BME280;27283;52.504;13.358;2023-09-08T02:58:34;101781.78;;;19.78;66.68
41596;BME280;27283;52.504;13.358;2023-09-08T03:01:10;101771.91;;;19.83;66.33
41596;BME280;27283;52.504;13.358;2023-09-08T03:03:43;101778.97;;;19.71;66.92
41596;BME280;27283;52.504;13.358;2023-09-08T03:06:20;101773.91;;;19.68;67.43
41596;BME280;27283;52.504;13.358;2023-09-08T03:08:52;101775.31;;;19.57;67.69
41596;BME280;27283;52.504;13.358;2023-09-08T03:11:24;101770.97;;;19.63;67.26
41596;BME280;27283;52.504;13.358;2023-09-08T03:13:59;101768.22;;;19.63;67.26
41596;BME280;27283;52.504;13.358;2023-09-08T03:16:32;101771.97;;;19.55;67.88
41596;BME280;27283;52.504;13.358;2023-09-08T03:19:04;101761.00;;;19.48;68.04
41596;BME280;27283;52.504;13.358;2023-09-08T03:21:36;101766.25;;;19.50;68.09
41596;BME280;27283;52.504;13.358;2023-09-08T03:24:08;101758.38;;;19.34;68.55
41596;BME280;27283;52.504;13.358;2023-09-08T03:26:41;101767.84;;;19.31;69.29
41596;BME280;27283;52.504;13.358;2023-09-08T03:29:15;101761.97;;;19.34;68.81
41596;BME280;27283;52.504;13.358;2023-09-08T03:31:48;101771.38;;;19.32;68.79
41596;BME280;27283;52.504;13.358;2023-09-08T03:34:29;101768.97;;;19.43;68.38
41596;BME280;27283;52.504;13.358;2023-09-08T03:37:01;101776.44;;;19.35;68.66
41596;BME280;27283;52.504;13.358;2023-09-08T03:39:33;101774.50;;;19.28;69.40
41596;BME280;27283;52.504;13.358;2023-09-08T03:42:06;101778.28;;;19.27;69.51
41596;BME280;27283;52.504;13.358;2023-09-08T03:44:41;101780.56;;;19.24;69.09
41596;BME280;27283;52.504;13.358;2023-09-08T03:47:13;101782.63;;;19.22;69.40
41596;BME280;27283;52.504;13.358;2023-09-08T03:49:46;101776.34;;;19.21;69.32
41596;BME280;27283;52.504;13.358;2023-09-08T03:52:26;101779.75;;;19.02;70.61
41596;BME280;27283;52.504;13.358;2023-09-08T03:54:58;101780.63;;;19.02;70.20
41596;BME280;27283;52.504;13.358;2023-09-08T03:57:32;101782.56;;;19.08;70.10
41596;BME280;27283;52.504;13.358;2023-09-08T04:00:08;101783.19;;;19.10;70.12
41596;BME280;27283;52.504;13.358;2023-09-08T04:02:46;101781.97;;;19.13;70.08
41596;BME280;27283;52.504;13.358;2023-09-08T04:05:19;101784.72;;;19.20;69.77
41596;BME280;27283;52.504;13.358;2023-09-08T04:07:52;101772.91;;;19.12;70.01
41596;BME280;27283;52.504;13.358;2023-09-08T04:10:24;101778.38;;;19.12;70.00
41596;BME280;27283;52.504;13.358;2023-09-08T04:12:57;101787.69;;;18.97;70.56
41596;BME280;27283;52.504;13.358;2023-09-08T04:15:32;101780.63;;;19.02;70.21
41596;BME280;27283;52.504;13.358;2023-09-08T04:18:05;101778.91;;;19.01;70.51
41596;BME280;27283;52.504;13.358;2023-09-08T04:20:38;101784.81;;;19.05;70.46
41596;BME280;27283;52.504;13.358;2023-09-08T04:23:16;101787.50;;;18.98;70.45
41596;BME280;27283;52.504;13.358;2023-09-08T04:25:53;101779.56;;;19.03;70.62
41596;BME280;27283;52.504;13.358;2023-09-08T04:28:40;101777.69;;;19.04;70.38
41596;BME280;27283;52.504;13.358;2023-09-08T04:31:16;101781.88;;;19.06;70.54
41596;BME280;27283;52.504;13.358;2023-09-08T04:33:49;101779.34;;;19.05;70.72
41596;BME280;27283;52.504;13.358;2023-09-08T04:36:22;101782.94;;;19.05;70.25
41596;BME280;27283;52.504;13.358;2023-09-08T04:38:55;101789.34;;;18.98;70.88
41596;BME280;27283;52.504;13.358;2023-09-08T04:41:28;101788.41;;;19.05;70.50
41596;BME280;27283;52.504;13.358;2023-09-08T04:44:00;101783.19;;;19.10;70.52
41596;BME280;27283;52.504;13.358;2023-09-08T04:46:35;101794.91;;;19.11;70.24
41596;BME280;27283;52.504;13.358;2023-09-08T04:49:09;101792.00;;;19.12;70.62
41596;BME280;27283;52.504;13.358;2023-09-08T04:54:30;101786.09;;;19.09;70.65
41596;BME280;27283;52.504;13.358;2023-09-08T04:57:03;101792.75;;;19.00;70.95
41596;BME280;27283;52.504;13.358;2023-09-08T04:59:51;101794.69;;;19.06;70.81
41596;BME280;27283;52.504;13.358;2023-09-08T05:02:28;101789.03;;;19.07;70.59
41596;BME280;27283;52.504;13.358;2023-09-08T05:05:01;101788.41;;;19.05;70.80
41596;BME280;27283;52.504;13.358;2023-09-08T05:07:34;101797.59;;;19.04;70.56
41596;BME280;27283;52.504;13.358;2023-09-08T05:10:09;101795.72;;;19.05;70.87
41596;BME280;27283;52.504;13.358;2023-09-08T05:12:41;101799.94;;;19.07;70.66
41596;BME280;27283;52.504;13.358;2023-09-08T05:15:14;101790.94;;;19.07;70.73
41596;BME280;27283;52.504;13.358;2023-09-08T05:17:52;101793.25;;;19.10;70.82
41596;BME280;27283;52.504;13.358;2023-09-08T05:20:25;101795.06;;;19.03;71.05
41596;BME280;27283;52.504;13.358;2023-09-08T05:22:58;101787.53;;;19.05;70.77
41596;BME280;27283;52.504;13.358;2023-09-08T05:25:30;101790.34;;;19.11;70.56
41596;BME280;27283;52.504;13.358;2023-09-08T05:28:03;101787.00;;;19.16;70.01
41596;BME280;27283;52.504;13.358;2023-09-08T05:30:36;101782.44;;;19.23;69.96
41596;BME280;27283;52.504;13.358;2023-09-08T05:33:13;101787.56;;;19.33;69.84
41596;BME280;27283;52.504;13.358;2023-09-08T05:35:46;101789.88;;;19.36;69.40
41596;BME280;27283;52.504;13.358;2023-09-08T05:38:19;101786.94;;;19.38;69.58
41596;BME280;27283;52.504;13.358;2023-09-08T05:40:55;101794.34;;;19.44;68.93
41596;BME280;27283;52.504;13.358;2023-09-08T05:43:27;101795.56;;;19.41;69.29
41596;BME280;27283;52.504;13.358;2023-09-08T05:46:01;101794.13;;;19.45;68.72
41596;BME280;27283;52.504;13.358;2023-09-08T05:48:36;101790.16;;;19.48;68.87
41596;BME280;27283;52.504;13.358;2023-09-08T05:51:09;101804.84;;;19.47;68.46
41596;BME280;27283;52.504;13.358;2023-09-08T05:53:41;101791.47;;;19.52;68.03
41596;BME280;27283;52.504;13.358;2023-09-08T05:56:14;101795.47;;;19.56;68.07
41596;BME280;27283;52.504;13.358;2023-09-08T05:58:46;101795.13;;;19.66;67.56
41596;BME280;27283;52.504;13.358;2023-09-08T06:01:20;101797.25;;;19.71;67.89
41596;BME280;27283;52.504;13.358;2023-09-08T06:03:55;101793.13;;;19.81;67.26
41596;BME280;27283;52.504;13.358;2023-09-08T06:06:28;101793.53;;;19.85;67.25
41596;BME280;27283;52.504;13.358;2023-09-08T06:09:02;101806.84;;;19.95;66.58
41596;BME280;27283;52.504;13.358;2023-09-08T06:11:32;101796.81;;;20.02;66.45
41596;BME280;27283;52.504;13.358;2023-09-08T06:14:04;101795.31;;;19.99;66.04
41596;BME280;27283;52.504;13.358;2023-09-08T06:16:37;101795.59;;;20.18;65.97
41596;BME280;27283;52.504;13.358;2023-09-08T06:19:12;101790.16;;;20.25;65.22
41596;BME280;27283;52.504;13.358;2023-09-08T06:21:45;101786.81;;;20.36;64.87
41596;BME280;27283;52.504;13.358;2023-09-08T06:24:19;101794.19;;;20.35;64.98
41596;BME280;27283;52.504;13.358;2023-09-08T06:26:51;101790.19;;;20.38;65.04
41596;BME280;27283;52.504;13.358;2023-09-08T06:29:24;101787.94;;;20.55;64.00
41596;BME280;27283;52.504;13.358;2023-09-08T06:31:57;101791.91;;;20.59;63.99
41596;BME280;27283;52.504;13.358;2023-09-08T06:34:31;101793.25;;;20.70;63.39
41596;BME280;27283;52.504;13.358;2023-09-08T06:37:06;101791.28;;;20.57;64.05
41596;BME280;27283;52.504;13.358;2023-09-08T06:39:38;101787.97;;;20.82;62.60
41596;BME280;27283;52.504;13.358;2023-09-08T06:42:11;101788.63;;;21.17;61.74
41596;BME280;27283;52.504;13.358;2023-09-08T06:44:43;101787.97;;;21.35;61.38
41596;BME280;27283;52.504;13.358;2023-09-08T06:47:18;101787.13;;;21.62;60.50
41596;BME280;27283;52.504;13.358;2023-09-08T06:49:53;101791.50;;;22.67;56.75
41596;BME280;27283;52.504;13.358;2023-09-08T06:52:25;101786.38;;;23.52;53.36
41596;BME280;27283;52.504;13.358;2023-09-08T06:54:57;101782.75;;;24.26;51.22
41596;BME280;27283;52.504;13.358;2023-09-08T06:57:30;101772.78;;;24.74;49.07
41596;BME280;27283;52.504;13.358;2023-09-08T07:00:02;101779.03;;;25.28;47.69
41596;BME280;27283;52.504;13.358;2023-09-08T07:02:38;101782.31;;;25.37;47.51
41596;BME280;27283;52.504;13.358;2023-09-08T07:05:14;101782.56;;;26.12;44.97
41596;BME280;27283;52.504;13.358;2023-09-08T07:07:49;101785.13;;;26.30;45.29
41596;BME280;27283;52.504;13.358;2023-09-08T07:10:22;101785.41;;;26.46;44.40
41596;BME280;27283;52.504;13.358;2023-09-08T07:12:55;101787.63;;;26.03;45.25
41596;BME280;27283;52.504;13.358;2023-09-08T07:15:30;101791.13;;;25.63;46.14
41596;BME280;27283;52.504;13.358;2023-09-08T07:18:02;101788.84;;;24.89;49.66
41596;BME280;27283;52.504;13.358;2023-09-08T07:20:37;101793.28;;;25.25;48.72
41596;BME280;27283;52.504;13.358;2023-09-08T07:23:09;101785.66;;;24.62;49.69
41596;BME280;27283;52.504;13.358;2023-09-08T07:25:46;101788.00;;;24.88;49.50
41596;BME280;27283;52.504;13.358;2023-09-08T07:28:19;101793.41;;;25.19;48.09
41596;BME280;27283;52.504;13.358;2023-09-08T07:30:51;101784.44;;;25.11;48.01
41596;BME280;27283;52.504;13.358;2023-09-08T07:33:24;101789.34;;;25.21;47.67
41596;BME280;27283;52.504;13.358;2023-09-08T07:36:04;101791.97;;;25.16;48.30
41596;BME280;27283;52.504;13.358;2023-09-08T07:38:36;101793.22;;;25.44;47.40
41596;BME280;27283;52.504;13.358;2023-09-08T07:41:08;101797.75;;;25.38;47.09
41596;BME280;27283;52.504;13.358;2023-09-08T07:43:41;101795.25;;;25.49;46.62
41596;BME280;27283;52.504;13.358;2023-09-08T07:46:14;101791.78;;;25.29;47.41
41596;BME280;27283;52.504;13.358;2023-09-08T07:48:47;101785.63;;;25.51;46.21
41596;BME280;27283;52.504;13.358;2023-09-08T07:51:23;101787.22;;;25.47;47.23
41596;BME280;27283;52.504;13.358;2023-09-08T07:53:58;101794.38;;;25.48;46.71
41596;BME280;27283;52.504;13.358;2023-09-08T07:56:32;101794.16;;;25.50;47.07
41596;BME280;27283;52.504;13.358;2023-09-08T07:59:05;101795.97;;;25.32;48.03
41596;BME280;27283;52.504;13.358;2023-09-08T08:01:37;101800.13;;;25.58;46.72
41596;BME280;27283;52.504;13.358;2023-09-08T08:04:10;101802.13;;;25.87;45.08
41596;BME280;27283;52.504;13.358;2023-09-08T08:06:45;101808.38;;;25.35;47.34
41596;BME280;27283;52.504;13.358;2023-09-08T08:09:18;101806.44;;;25.82;45.93
41596;BME280;27283;52.504;13.358;2023-09-08T08:11:51;101800.56;;;25.91;46.44
41596;BME280;27283;52.504;13.358;2023-09-08T08:14:24;101801.63;;;25.90;45.80
41596;BME280;27283;52.504;13.358;2023-09-08T08:16:57;101794.13;;;26.26;45.67
41596;BME280;27283;52.504;13.358;2023-09-08T08:19:29;101796.44;;;26.17;45.13
41596;BME280;27283;52.504;13.358;2023-09-08T08:22:08;101801.28;;;26.56;44.71
41596;BME280;27283;52.504;13.358;2023-09-08T08:24:43;101790.16;;;26.79;43.30
41596;BME280;27283;52.504;13.358;2023-09-08T08:27:17;101793.31;;;27.05;43.33
41596;BME280;27283;52.504;13.358;2023-09-08T08:29:51;101784.22;;;28.00;40.45
41596;BME280;27283;52.504;13.358;2023-09-08T08:32:23;101784.38;;;28.15;40.49
41596;BME280;27283;52.504;13.358;2023-09-08T08:35:12;101786.41;;;29.12;38.09
41596;BME280;27283;52.504;13.358;2023-09-08T08:37:50;101785.19;;;29.83;37.03
41596;BME280;27283;52.504;13.358;2023-09-08T08:40:23;101784.59;;;30.80;35.51
41596;BME280;27283;52.504;13.358;2023-09-08T08:42:56;101780.13;;;30.53;35.39
41596;BME280;27283;52.504;13.358;2023-09-08T08:46:37;101776.28;;;31.06;35.29
41596;BME280;27283;52.504;13.358;2023-09-08T08:49:15;101785.84;;;31.70;34.21
41596;BME280;27283;52.504;13.358;2023-09-08T08:51:48;101785.69;;;32.11;32.79
41596;BME280;27283;52.504;13.358;2023-09-08T08:54:28;101784.69;;;32.37;32.28
41596;BME280;27283;52.504;13.358;2023-09-08T08:57:02;101785.84;;;32.36;31.97
41596;BME280;27283;52.504;13.358;2023-09-08T08:59:51;101777.41;;;32.80;31.71
41596;BME280;27283;52.504;13.358;2023-09-08T09:02:39;101776.78;;;32.54;31.75
41596;BME280;27283;52.504;13.358;2023-09-08T09:05:23;101770.44;;;33.12;30.92
41596;BME280;27283;52.504;13.358;2023-09-08T09:08:12;101776.97;;;32.97;31.00
41596;BME280;27283;52.504;13.358;2023-09-08T09:14:12;101776.44;;;33.78;29.35
41596;BME280;27283;52.504;13.358;2023-09-08T09:17:14;101764.44;;;33.53;30.13
41596;BME280;27283;52.504;13.358;2023-09-08T09:20:31;101774.88;;;33.43;31.59
41596;BME280;27283;52.504;13.358;2023-09-08T09:23:10;101775.22;;;33.84;29.89
41596;BME280;27283;52.504;13.358;2023-09-08T09:26:26;101771.03;;;34.06;29.20
41596;BME280;27283;52.504;13.358;2023-09-08T09:29:57;101769.81;;;34.12;29.26
41596;BME280;27283;52.504;13.358;2023-09-08T09:33:04;101773.56;;;33.83;30.86
41596;BME280;27283;52.504;13.358;2023-09-08T09:36:06;101759.56;;;33.88;29.30
41596;BME280;27283;52.504;13.358;2023-09-08T09:39:18;101764.56;;;33.67;29.65
41596;BME280;27283;52.504;13.358;2023-09-08T09:42:56;101760.16;;;34.23;29.10
41596;BME280;27283;52.504;13.358;2023-09-08T09:45:52;101759.03;;;34.24;29.23
41596;BME280;27283;52.504;13.358;2023-09-08T09:52:51;101757.78;;;34.88;27.89
41596;BME280;27283;52.504;13.358;2023-09-08T09:56:01;101758.50;;;34.60;28.28
41596;BME280;27283;52.504;13.358;2023-09-08T09:59:54;101754.34;;;34.58;28.14
41596;BME280;27283;52.504;13.358;2023-09-08T10:03:19;101750.91;;;34.28;28.85
41596;BME280;27283;52.504;13.358;2023-09-08T10:06:49;101740.63;;;34.04;32.07
41596;BME280;27283;52.504;13.358;2023-09-08T10:09:56;101740.91;;;34.79;27.96
41596;BME280;27283;52.504;13.358;2023-09-08T10:12:45;101739.69;;;34.66;28.48
41596;BME280;27283;52.504;13.358;2023-09-08T10:17:15;101737.81;;;35.08;27.79
41596;BME280;27283;52.504;13.358;2023-09-08T10:19:37;101733.44;;;34.55;28.18
41596;BME280;27283;52.504;13.358;2023-09-08T10:23:48;101734.50;;;34.59;27.96
41596;BME280;27283;52.504;13.358;2023-09-08T10:27:48;101728.72;;;33.55;29.93
41596;BME280;27283;52.504;13.358;2023-09-08T10:30:37;101730.06;;;34.72;28.11
41596;BME280;27283;52.504;13.358;2023-09-08T10:34:16;101730.47;;;34.66;27.44
41596;BME280;27283;52.504;13.358;2023-09-08T10:37:21;101720.13;;;34.99;27.30
41596;BME280;27283;52.504;13.358;2023-09-08T10:40:44;101715.56;;;35.03;27.77
41596;BME280;27283;52.504;13.358;2023-09-08T10:44:30;101714.91;;;35.90;25.89
41596;BME280;27283;52.504;13.358;2023-09-08T10:47:39;101718.19;;;35.13;26.31
41596;BME280;27283;52.504;13.358;2023-09-08T10:51:05;101712.81;;;35.31;26.43
41596;BME280;27283;52.504;13.358;2023-09-08T10:58:04;101716.97;;;35.34;26.71
41596;BME280;27283;52.504;13.358;2023-09-08T11:01:15;101712.66;;;35.22;26.63
41596;BME280;27283;52.504;13.358;2023-09-08T11:05:40;101709.25;;;34.84;27.27
41596;BME280;27283;52.504;13.358;2023-09-08T11:09:38;101712.19;;;34.40;28.31
41596;BME280;27283;52.504;13.358;2023-09-08T11:13:26;101707.81;;;35.14;26.10
41596;BME280;27283;52.504;13.358;2023-09-08T11:16:27;101707.94;;;35.23;26.26
41596;BME280;27283;52.504;13.358;2023-09-08T11:19:50;101706.56;;;35.20;26.41
41596;BME280;27283;52.504;13.358;2023-09-08T11:23:05;101701.06;;;33.40;28.80
41596;BME280;27283;52.504;13.358;2023-09-08T11:33:38;101695.69;;;34.06;27.68
41596;BME280;27283;52.504;13.358;2023-09-08T11:40:58;101680.00;;;34.10;27.82
41596;BME280;27283;52.504;13.358;2023-09-08T11:44:58;101693.06;;;33.77;27.66
41596;BME280;27283;52.504;13.358;2023-09-08T11:48:17;101690.50;;;33.80;27.53
41596;BME280;27283;52.504;13.358;2023-09-08T11:51:21;101682.31;;;33.46;27.24
41596;BME280;27283;52.504;13.358;2023-09-08T11:54:39;101686.00;;;32.88;28.25
41596;BME280;27283;52.504;13.358;2023-09-08T11:59:08;101674.06;;;32.87;28.57
41596;BME280;27283;52.504;13.358;2023-09-08T12:02:35;101672.97;;;32.19;29.34
41596;BME280;27283;52.504;13.358;2023-09-08T12:05:22;101664.66;;;31.69;29.79
41596;BME280;27283;52.504;13.358;2023-09-08T12:07:57;101666.97;;;31.47;30.29
41596;BME280;27283;52.504;13.358;2023-09-08T12:10:50;101670.06;;;31.30;30.77
41596;BME280;27283;52.504;13.358;2023-09-08T12:15:04;101657.97;;;31.05;31.16
41596;BME280;27283;52.504;13.358;2023-09-08T12:18:13;101658.50;;;31.12;30.70
41596;BME280;27283;52.504;13.358;2023-09-08T12:21:08;101647.66;;;31.05;31.03
41596;BME280;27283;52.504;13.358;2023-09-08T12:24:12;101656.84;;;30.90;30.78
41596;BME280;27283;52.504;13.358;2023-09-08T12:27:26;101649.97;;;30.57;30.74
41596;BME280;27283;52.504;13.358;2023-09-08T12:31:05;101653.56;;;30.63;30.14
41596;BME280;27283;52.504;13.358;2023-09-08T12:36:03;101642.75;;;30.51;30.76
41596;BME280;27283;52.504;13.358;2023-09-08T12:38:48;101636.94;;;30.57;30.90
41596;BME280;27283;52.504;13.358;2023-09-08T12:46:47;101631.38;;;30.27;32.11
41596;BME280;27283;52.504;13.358;2023-09-08T12:50:39;101630.84;;;30.25;32.67
41596;BME280;27283;52.504;13.358;2023-09-08T12:54:35;101631.66;;;29.94;33.38
41596;BME280;27283;52.504;13.358;2023-09-08T12:57:08;101631.34;;;29.91;33.58
41596;BME280;27283;52.504;13.358;2023-09-08T13:00:21;101624.44;;;30.03;32.43
41596;BME280;27283;52.504;13.358;2023-09-08T13:03:20;101618.25;;;29.76;32.87
41596;BME280;27283;52.504;13.358;2023-09-08T13:08:21;101609.75;;;29.98;33.25
41596;BME280;27283;52.504;13.358;2023-09-08T13:11:53;101611.41;;;29.99;33.51
41596;BME280;27283;52.504;13.358;2023-09-08T13:14:54;101610.53;;;29.78;33.82
41596;BME280;27283;52.504;13.358;2023-09-08T13:17:41;101606.94;;;29.87;33.59
41596;BME280;27283;52.504;13.358;2023-09-08T13:21:24;101612.22;;;29.84;33.02
41596;BME280;27283;52.504;13.358;2023-09-08T13:24:51;101606.69;;;30.15;32.84
41596;BME280;27283;52.504;13.358;2023-09-08T13:28:27;101601.72;;;30.17;31.78
41596;BME280;27283;52.504;13.358;2023-09-08T13:31:08;101597.25;;;30.05;32.01
41596;BME280;27283;52.504;13.358;2023-09-08T13:34:04;101590.88;;;30.00;32.77
41596;BME280;27283;52.504;13.358;2023-09-08T13:37:03;101592.00;;;29.99;32.67
41596;BME280;27283;52.504;13.358;2023-09-08T13:39:59;101582.28;;;29.96;32.76
41596;BME280;27283;52.504;13.358;2023-09-08T13:43:45;101580.34;;;29.92;32.42
41596;BME280;27283;52.504;13.358;2023-09-08T13:46:56;101579.25;;;29.98;32.80
41596;BME280;27283;52.504;13.358;2023-09-08T13:50:29;101578.72;;;30.06;31.93
41596;BME280;27283;52.504;13.358;2023-09-08T13:53:37;101574.53;;;30.03;32.15
41596;BME280;27283;52.504;13.358;2023-09-08T13:57:01;101570.06;;;29.72;32.76
41596;BME280;27283;52.504;13.358;2023-09-08T14:04:59;101559.22;;;29.65;33.42
41596;BME280;27283;52.504;13.358;2023-09-08T14:08:11;101550.97;;;29.85;32.64
41596;BME280;27283;52.504;13.358;2023-09-08T14:10:59;101557.88;;;29.78;32.73
41596;BME280;27283;52.504;13.358;2023-09-08T14:14:09;101561.78;;;29.82;32.35
41596;BME280;27283;52.504;13.358;2023-09-08T14:16:59;101555.91;;;29.78;32.54
41596;BME280;27283;52.504;13.358;2023-09-08T14:20:08;101554.84;;;29.84;32.73
41596;BME280;27283;52.504;13.358;2023-09-08T14:23:17;101553.97;;;29.74;32.77
41596;BME280;27283;52.504;13.358;2023-09-08T14:26:16;101554.28;;;29.82;32.43
41596;BME280;27283;52.504;13.358;2023-09-08T14:29:48;101551.22;;;29.89;32.79
41596;BME280;27283;52.504;13.358;2023-09-08T14:33:24;101550.34;;;29.68;32.41
41596;BME280;27283;52.504;13.358;2023-09-08T14:36:30;101550.34;;;29.68;32.19
41596;BME280;27283;52.504;13.358;2023-09-08T14:39:32;101550.66;;;29.72;32.18
41596;BME280;27283;52.504;13.358;2023-09-08T14:42:24;101548.44;;;29.68;32.37
41596;BME280;27283;52.504;13.358;2023-09-08T14:45:20;101547.38;;;29.85;31.94
41596;BME280;27283;52.504;13.358;2023-09-08T14:51:21;101547.03;;;29.61;31.27
41596;BME280;27283;52.504;13.358;2023-09-08T14:53:57;101543.44;;;29.70;31.15
41596;BME280;27283;52.504;13.358;2023-09-08T14:56:37;101546.50;;;29.69;31.49
41596;BME280;27283;52.504;13.358;2023-09-08T14:59:21;101539.00;;;29.80;31.72
41596;BME280;27283;52.504;13.358;2023-09-08T15:01:55;101542.91;;;29.68;31.92
41596;BME280;27283;52.504;13.358;2023-09-08T15:04:37;101543.16;;;29.67;32.02